Time;durP1;ratioP1;P1;durP2;ratioP2;P2;SDS_P1;SDS_P2;PMS_P1;PMS_P2;Temp;Humidity;BMP_temperature;BMP_pressure;BME280_temperature;BME280_humidity;BME280_pressure;Samples;Min_cycle;Max_cycle;Signal;HPM_P1;HPM_P2
2023/01/15 00:02:09;;;;;;;11.35;2.08;;;8.30;90.20;;;;;;9181117;19;20017;-68
2023/01/15 00:05:10;;;;;;;9.63;1.75;;;8.30;90.20;;;;;;9182034;19;20021;-67
2023/01/15 00:08:12;;;;;;;7.60;1.65;;;8.30;90.20;;;;;;9174782;19;20026;-67
2023/01/15 00:11:13;;;;;;;6.20;1.50;;;8.30;90.20;;;;;;9176850;19;20026;-68
2023/01/15 00:14:15;;;;;;;6.22;1.20;;;8.30;90.20;;;;;;9175443;19;20097;-67
2023/01/15 00:17:16;;;;;;;5.97;1.38;;;8.30;90.20;;;;;;9176384;19;20090;-68
2023/01/15 00:20:18;;;;;;;9.82;1.33;;;8.30;90.20;;;;;;9180327;19;20015;-68
2023/01/15 00:27:37;;;;;;;6.47;1.45;;;8.30;90.20;;;;;;9182383;19;20026;-68
2023/01/15 00:30:01;;;;;;;8.25;1.30;;;8.30;90.50;;;;;;9182816;19;20958;-68
2023/01/15 00:33:02;;;;;;;11.75;1.50;;;8.30;90.20;;;;;;9181454;19;20015;-68
2023/01/15 00:36:04;;;;;;;13.90;2.08;;;8.30;90.20;;;;;;9178006;19;20017;-68
2023/01/15 00:39:05;;;;;;;10.13;1.85;;;8.20;90.20;;;;;;9182971;19;20023;-68
2023/01/15 00:42:07;;;;;;;9.43;1.27;;;8.20;90.10;;;;;;9178699;19;20034;-68
2023/01/15 00:45:10;;;;;;;10.25;1.45;;;8.30;90.20;;;;;;9183147;19;20015;-68
2023/01/15 00:48:12;;;;;;;9.98;1.92;;;8.20;90.20;;;;;;9181440;19;21614;-68
2023/01/15 00:51:13;;;;;;;15.63;2.30;;;8.20;90.10;;;;;;9179323;19;20046;-68
2023/01/15 00:54:15;;;;;;;10.07;1.33;;;8.20;90.10;;;;;;9179610;19;20022;-68
2023/01/15 00:57:16;;;;;;;5.97;1.30;;;8.20;90.10;;;;;;9182325;19;20031;-68
2023/01/15 01:00:17;;;;;;;8.82;1.77;;;8.20;90.10;;;;;;9180089;19;20024;-68
2023/01/15 01:03:19;;;;;;;12.63;1.20;;;8.20;90.10;;;;;;9179908;19;20057;-68
2023/01/15 01:06:21;;;;;;;10.40;1.60;;;8.20;90.10;;;;;;9181771;19;20656;-68
2023/01/15 01:09:22;;;;;;;9.75;1.98;;;8.20;90.10;;;;;;9180528;19;20019;-68
2023/01/15 01:12:25;;;;;;;9.15;1.40;;;8.20;90.10;;;;;;9180817;19;20491;-68
2023/01/15 01:15:26;;;;;;;5.68;1.52;;;8.20;90.10;;;;;;9181881;19;20030;-67
2023/01/15 01:18:28;;;;;;;17.40;1.50;;;8.20;90.00;;;;;;9180451;19;20035;-68
2023/01/15 01:21:30;;;;;;;4.43;1.45;;;8.20;90.00;;;;;;9178019;19;20095;-68
2023/01/15 01:24:33;;;;;;;11.65;1.55;;;8.20;90.00;;;;;;9180820;19;20081;-67
2023/01/15 01:27:34;;;;;;;15.98;1.88;;;8.20;90.00;;;;;;9178934;19;20052;-67
2023/01/15 01:30:37;;;;;;;6.93;1.40;;;8.10;90.00;;;;;;9178433;19;20018;-67
2023/01/15 01:33:38;;;;;;;9.00;1.48;;;8.20;90.00;;;;;;9179898;19;20039;-67
2023/01/15 01:36:41;;;;;;;8.63;1.10;;;8.10;89.90;;;;;;9176052;19;20010;-68
2023/01/15 01:39:44;;;;;;;10.93;1.67;;;8.10;89.90;;;;;;9178352;19;20477;-69
2023/01/15 01:42:46;;;;;;;8.68;1.73;;;8.10;89.90;;;;;;9180026;19;20018;-67
2023/01/15 01:45:47;;;;;;;15.32;1.55;;;8.10;89.80;;;;;;9180930;19;20034;-67
2023/01/15 01:48:53;;;;;;;12.82;1.30;;;8.10;89.80;;;;;;9178249;19;20014;-67
2023/01/15 01:52:01;;;;;;;10.10;1.75;;;8.10;89.80;;;;;;9180267;19;20039;-68
2023/01/15 01:55:04;;;;;;;11.50;1.88;;;8.10;89.80;;;;;;9177703;19;20397;-67
2023/01/15 01:58:09;;;;;;;8.32;2.20;;;8.10;89.80;;;;;;9178458;19;20038;-67
2023/01/15 02:01:11;;;;;;;15.20;1.85;;;8.10;89.70;;;;;;9175836;19;20388;-68
2023/01/15 02:04:12;;;;;;;13.20;2.22;;;8.00;89.60;;;;;;9180284;19;20017;-67
2023/01/15 02:07:16;;;;;;;9.03;1.97;;;8.00;89.60;;;;;;9179528;19;20359;-68
2023/01/15 02:10:18;;;;;;;13.73;2.00;;;8.00;89.70;;;;;;9175948;19;20037;-68
2023/01/15 02:13:39;;;;;;;7.97;1.67;;;8.00;89.60;;;;;;9179809;19;20014;-67
2023/01/15 02:16:56;;;;;;;11.93;1.70;;;8.00;89.50;;;;;;9176956;19;20011;-67
2023/01/15 02:20:16;;;;;;;16.25;2.00;;;8.00;89.50;;;;;;9175053;19;20609;-68
2023/01/15 02:23:32;;;;;;;10.45;1.30;;;8.00;89.50;;;;;;9178781;19;20015;-67
2023/01/15 02:26:49;;;;;;;12.48;1.98;;;8.00;89.50;;;;;;9177766;19;20455;-68
2023/01/15 02:30:24;;;;;;;13.95;1.70;;;8.00;89.50;;;;;;9176787;19;20024;-67
2023/01/15 02:33:38;;;;;;;13.65;1.63;;;8.00;89.50;;;;;;9176536;19;20014;-67
2023/01/15 02:36:45;;;;;;;15.90;1.75;;;8.00;89.50;;;;;;9173108;19;20337;-68
2023/01/15 02:39:58;;;;;;;10.95;1.98;;;7.90;89.40;;;;;;9176408;19;20070;-67
2023/01/15 02:43:00;;;;;;;11.35;2.78;;;7.90;89.40;;;;;;9176131;19;20029;-68
2023/01/15 02:46:04;;;;;;;16.33;2.33;;;7.90;89.40;;;;;;9178159;19;20015;-68
2023/01/15 02:49:08;;;;;;;15.68;2.08;;;7.90;89.30;;;;;;9175883;19;20035;-67
2023/01/15 02:52:19;;;;;;;10.63;1.60;;;7.90;89.30;;;;;;9176536;19;20352;-68
2023/01/15 02:55:25;;;;;;;20.30;2.17;;;7.90;89.30;;;;;;9177814;19;20035;-68
2023/01/15 02:58:31;;;;;;;16.85;2.15;;;7.90;89.30;;;;;;9178082;19;20278;-67
2023/01/15 03:01:41;;;;;;;7.43;1.42;;;7.90;89.20;;;;;;9173672;19;20437;-67
2023/01/15 03:04:48;;;;;;;14.75;1.85;;;7.90;89.20;;;;;;9176805;19;20082;-68
2023/01/15 03:07:54;;;;;;;10.68;1.73;;;7.90;89.20;;;;;;9176961;19;20021;-68
2023/01/15 03:11:02;;;;;;;17.15;1.98;;;7.90;89.20;;;;;;9173795;19;20018;-68
2023/01/15 03:14:14;;;;;;;11.73;2.20;;;7.90;89.10;;;;;;9173649;19;20026;-68
2023/01/15 03:17:25;;;;;;;14.90;2.22;;;7.90;89.00;;;;;;9177720;19;20018;-68
2023/01/15 03:20:29;;;;;;;9.82;1.05;;;7.90;89.00;;;;;;9175255;19;20027;-68
2023/01/15 03:23:36;;;;;;;12.07;1.55;;;7.90;89.00;;;;;;9176763;19;20014;-68
2023/01/15 03:26:38;;;;;;;11.57;1.80;;;7.80;88.80;;;;;;9176297;19;20105;-68
2023/01/15 03:29:44;;;;;;;20.70;2.13;;;7.80;88.90;;;;;;9174033;19;20044;-68
2023/01/15 03:32:46;;;;;;;10.85;1.77;;;7.80;88.80;;;;;;9182242;19;20011;-68
2023/01/15 03:35:57;;;;;;;17.17;1.65;;;7.80;88.80;;;;;;9181343;19;20512;-68
2023/01/15 03:39:20;;;;;;;20.92;1.80;;;7.70;88.70;;;;;;9182903;19;20014;-68
2023/01/15 03:42:41;;;;;;;12.25;2.47;;;7.70;88.70;;;;;;9179423;19;20018;-67
2023/01/15 03:45:48;;;;;;;8.52;2.00;;;7.70;88.70;;;;;;9183040;19;20011;-67
2023/01/15 03:49:20;;;;;;;15.32;2.35;;;7.70;88.70;;;;;;9182067;19;20798;-67
2023/01/15 03:52:44;;;;;;;12.98;2.13;;;7.70;88.60;;;;;;9181956;19;20025;-67
2023/01/15 03:56:23;;;;;;;12.63;2.22;;;7.70;88.60;;;;;;9183143;19;20010;-68
2023/01/15 03:59:34;;;;;;;16.20;1.75;;;7.70;88.60;;;;;;9181040;19;20381;-68
2023/01/15 04:02:37;;;;;;;7.70;1.90;;;7.70;88.60;;;;;;9179588;19;20014;-68
2023/01/15 04:05:41;;;;;;;7.03;1.50;;;7.60;88.50;;;;;;9182095;19;20025;-68
2023/01/15 04:08:44;;;;;;;10.32;1.35;;;7.60;88.50;;;;;;9181907;19;20599;-68
2023/01/15 04:11:46;;;;;;;15.75;1.83;;;7.60;88.50;;;;;;9179149;19;20022;-68
2023/01/15 04:14:48;;;;;;;9.07;1.63;;;7.60;88.50;;;;;;9181632;19;20352;-68
2023/01/15 04:17:52;;;;;;;17.40;1.80;;;7.60;88.50;;;;;;9181132;19;20018;-67
2023/01/15 04:20:56;;;;;;;11.88;1.65;;;7.60;88.40;;;;;;9180438;19;20026;-67
2023/01/15 04:23:57;;;;;;;11.02;1.45;;;7.60;88.40;;;;;;9183083;19;20018;-67
2023/01/15 04:26:58;;;;;;;9.15;1.98;;;7.60;88.40;;;;;;9183217;19;20089;-67
2023/01/15 04:30:00;;;;;;;7.90;1.60;;;7.60;88.40;;;;;;9182272;19;20052;-67
2023/01/15 04:33:02;;;;;;;14.80;1.92;;;7.50;88.30;;;;;;9182708;19;20047;-67
2023/01/15 04:36:04;;;;;;;14.90;1.73;;;7.50;88.20;;;;;;9178879;19;20368;-68
2023/01/15 04:39:05;;;;;;;12.77;1.42;;;7.50;88.20;;;;;;9182195;19;20045;-68
2023/01/15 04:45:32;;;;;;;8.45;1.70;;;7.50;88.20;;;;;;9181878;19;20027;-68
2023/01/15 04:48:33;;;;;;;15.13;1.98;;;7.50;88.20;;;;;;9182408;19;20630;-68
2023/01/15 04:51:35;;;;;;;14.70;2.28;;;7.50;88.10;;;;;;9182842;19;20037;-68
2023/01/15 04:54:37;;;;;;;11.50;1.30;;;7.40;88.10;;;;;;9182654;19;20120;-68
2023/01/15 04:57:39;;;;;;;7.22;1.40;;;7.40;88.10;;;;;;9182034;19;20467;-68
2023/01/15 05:00:40;;;;;;;9.25;1.92;;;7.40;88.10;;;;;;9180926;19;20363;-68
2023/01/15 05:03:42;;;;;;;14.15;1.83;;;7.40;88.00;;;;;;9181760;19;20019;-68
2023/01/15 05:06:43;;;;;;;24.75;3.28;;;7.40;88.00;;;;;;9178061;19;20384;-68
2023/01/15 05:09:46;;;;;;;12.80;1.52;;;7.40;87.90;;;;;;9180835;19;20022;-68
2023/01/15 05:12:47;;;;;;;14.65;2.25;;;7.40;87.90;;;;;;9181951;19;20074;-68
2023/01/15 05:15:48;;;;;;;15.43;1.45;;;7.40;87.90;;;;;;9181738;19;20011;-68
2023/01/15 05:18:52;;;;;;;8.40;1.58;;;7.40;87.90;;;;;;9181307;19;20023;-68
2023/01/15 05:21:53;;;;;;;10.40;1.30;;;7.40;87.90;;;;;;9179681;19;20967;-68
2023/01/15 05:24:55;;;;;;;22.35;1.80;;;7.40;88.00;;;;;;9181924;19;20014;-68
2023/01/15 05:27:56;;;;;;;8.48;1.45;;;7.40;87.90;;;;;;9181060;19;20046;-68
2023/01/15 05:30:57;;;;;;;15.20;1.52;;;7.40;87.90;;;;;;9181901;19;20443;-68
2023/01/15 05:33:59;;;;;;;13.68;1.42;;;7.40;87.80;;;;;;9180400;19;20490;-67
2023/01/15 05:37:01;;;;;;;11.82;2.20;;;7.30;87.80;;;;;;9177125;19;20019;-68
2023/01/15 05:40:02;;;;;;;11.38;1.35;;;7.30;87.70;;;;;;9180262;19;20499;-67
2023/01/15 05:43:04;;;;;;;18.77;1.90;;;7.30;88.40;;;;;;9180339;19;20082;-67
2023/01/15 05:46:05;;;;;;;8.23;2.17;;;7.30;87.70;;;;;;9180664;19;20575;-67
2023/01/15 05:49:10;;;;;;;14.18;2.22;;;7.30;87.70;;;;;;9180233;19;20022;-68
2023/01/15 05:52:11;;;;;;;12.70;1.77;;;7.30;87.80;;;;;;9180441;19;20037;-67
2023/01/15 05:55:13;;;;;;;5.57;1.30;;;7.30;87.70;;;;;;9178582;19;20014;-68
2023/01/15 05:58:14;;;;;;;14.38;1.63;;;7.20;87.70;;;;;;9180093;19;20543;-68
2023/01/15 06:01:16;;;;;;;7.22;1.10;;;7.30;87.80;;;;;;9177166;19;20022;-68
2023/01/15 06:04:20;;;;;;;6.50;1.50;;;7.20;87.80;;;;;;9179759;19;20028;-68
2023/01/15 06:07:21;;;;;;;6.03;1.10;;;7.20;87.80;;;;;;9179815;19;20023;-67
2023/01/15 06:10:22;;;;;;;8.88;1.55;;;7.20;87.70;;;;;;9178086;19;20440;-67
2023/01/15 06:13:24;;;;;;;6.72;1.60;;;7.20;87.70;;;;;;9180274;19;20040;-68
2023/01/15 06:16:25;;;;;;;8.68;1.13;;;7.10;87.70;;;;;;9179325;19;20035;-67
2023/01/15 06:19:27;;;;;;;12.27;1.48;;;7.20;87.70;;;;;;9178634;19;20025;-67
2023/01/15 06:22:28;;;;;;;9.98;1.77;;;7.10;87.60;;;;;;9174792;19;20014;-67
2023/01/15 06:25:34;;;;;;;4.82;0.93;;;7.10;87.60;;;;;;9179692;19;20018;-67
2023/01/15 06:28:35;;;;;;;5.78;1.05;;;7.00;87.40;;;;;;9178695;19;20097;-67
2023/01/15 06:31:36;;;;;;;6.85;0.80;;;7.00;87.40;;;;;;9179286;19;20076;-67
2023/01/15 06:34:40;;;;;;;7.05;1.20;;;6.90;87.40;;;;;;9174790;19;20093;-67
2023/01/15 06:37:41;;;;;;;4.70;1.17;;;6.90;87.50;;;;;;9178559;19;20045;-67
2023/01/15 06:40:43;;;;;;;14.05;1.63;;;6.90;87.50;;;;;;9177501;19;20110;-67
2023/01/15 06:47:20;;;;;;;17.65;2.55;;;6.80;87.40;;;;;;9179211;19;20078;-68
2023/01/15 06:50:22;;;;;;;10.73;1.63;;;6.80;87.50;;;;;;9177915;19;20022;-67
2023/01/15 06:53:23;;;;;;;14.23;1.77;;;6.70;87.60;;;;;;9178864;19;20014;-67
2023/01/15 06:56:24;;;;;;;13.05;1.98;;;6.70;87.50;;;;;;9177966;19;20010;-67
2023/01/15 06:59:26;;;;;;;11.43;1.85;;;6.70;87.60;;;;;;9174164;19;20025;-67
2023/01/15 07:02:27;;;;;;;12.00;1.70;;;6.70;87.70;;;;;;9173462;19;20025;-67
2023/01/15 07:05:29;;;;;;;9.93;1.80;;;6.60;87.60;;;;;;9177102;19;20023;-67
2023/01/15 07:08:30;;;;;;;12.25;2.03;;;6.60;87.70;;;;;;9177938;19;20053;-67
2023/01/15 07:11:32;;;;;;;19.90;2.33;;;6.60;87.70;;;;;;9172787;19;20014;-66
2023/01/15 07:14:33;;;;;;;10.63;2.10;;;6.60;87.70;;;;;;9178702;19;20006;-67
2023/01/15 07:17:35;;;;;;;11.02;2.50;;;6.60;87.70;;;;;;9178143;19;20021;-67
2023/01/15 07:20:36;;;;;;;17.10;1.90;;;6.60;87.70;;;;;;9176647;19;20033;-67
2023/01/15 07:23:37;;;;;;;14.57;1.90;;;6.60;87.70;;;;;;9176332;19;20707;-67
2023/01/15 07:26:40;;;;;;;17.38;1.80;;;6.60;87.70;;;;;;9177460;19;20018;-66
2023/01/15 07:29:41;;;;;;;10.90;1.73;;;6.60;87.70;;;;;;9177956;19;20019;-67
2023/01/15 07:32:43;;;;;;;11.32;1.17;;;6.50;87.60;;;;;;9176713;19;20026;-67
2023/01/15 07:35:44;;;;;;;6.40;0.98;;;6.50;87.60;;;;;;9172037;19;20645;-67
2023/01/15 07:38:45;;;;;;;3.55;0.88;;;6.50;87.50;;;;;;9176745;19;20100;-67
2023/01/15 07:51:49;;;;;;;6.32;1.45;;;6.50;87.30;;;;;;9176369;19;20010;-67
2023/01/15 07:54:50;;;;;;;10.30;1.90;;;6.50;87.50;;;;;;9173224;19;20022;-66
2023/01/15 07:57:52;;;;;;;5.57;1.27;;;6.50;87.20;;;;;;9175946;19;20026;-67
2023/01/15 08:00:54;;;;;;;5.25;1.48;;;6.40;87.00;;;;;;9174635;19;20007;-67
2023/01/15 08:03:55;;;;;;;9.18;1.23;;;6.40;86.90;;;;;;9175020;19;20027;-67
2023/01/15 08:07:00;;;;;;;7.88;1.73;;;6.40;86.90;;;;;;9174852;19;20031;-66
2023/01/15 08:10:02;;;;;;;6.88;1.50;;;6.30;87.50;;;;;;9173950;19;20015;-67
2023/01/15 08:16:24;;;;;;;12.73;1.60;;;6.20;86.90;;;;;;9174931;19;20546;-67
2023/01/15 08:19:25;;;;;;;15.75;3.40;;;6.20;86.90;;;;;;9182621;19;20019;-67
2023/01/15 08:22:27;;;;;;;8.75;1.67;;;6.20;86.90;;;;;;9180965;19;20402;-67
2023/01/15 08:25:28;;;;;;;12.02;1.77;;;6.10;86.90;;;;;;9183948;19;20051;-67
2023/01/15 08:28:29;;;;;;;12.18;1.92;;;6.10;86.90;;;;;;9182811;19;20015;-67
2023/01/15 08:31:31;;;;;;;12.77;2.05;;;6.10;87.00;;;;;;9183120;19;20017;-67
2023/01/15 08:34:32;;;;;;;12.30;1.77;;;6.10;87.10;;;;;;9178522;19;20333;-67
2023/01/15 08:37:34;;;;;;;18.92;2.10;;;6.10;87.10;;;;;;9183137;19;20096;-67
2023/01/15 08:40:57;;;;;;;16.88;1.90;;;6.10;87.20;;;;;;9181795;19;20014;-67
2023/01/15 08:43:58;;;;;;;14.25;1.48;;;6.10;87.20;;;;;;9181653;19;20041;-67
2023/01/15 08:47:00;;;;;;;13.90;1.98;;;6.10;87.20;;;;;;9182502;19;20478;-67
2023/01/15 08:50:01;;;;;;;18.58;2.05;;;6.10;87.20;;;;;;9180596;19;20025;-67
2023/01/15 08:53:03;;;;;;;9.98;1.77;;;6.10;87.60;;;;;;9182319;19;20018;-67
2023/01/15 08:56:16;;;;;;;16.10;3.22;;;6.10;87.20;;;;;;9182301;19;20483;-67
2023/01/15 08:59:18;;;;;;;10.50;1.63;;;6.10;87.20;;;;;;9181565;19;20336;-67
2023/01/15 09:02:19;;;;;;;10.52;1.25;;;6.20;87.20;;;;;;9179330;19;20022;-67
2023/01/15 09:05:20;;;;;;;11.82;1.45;;;6.20;87.20;;;;;;9181969;19;20025;-67
2023/01/15 09:08:22;;;;;;;11.65;1.45;;;6.20;87.20;;;;;;9172355;19;20027;-67
2023/01/15 09:11:23;;;;;;;20.25;2.35;;;6.20;87.20;;;;;;9170600;19;20029;-67
2023/01/15 09:14:24;;;;;;;6.82;1.70;;;6.20;87.10;;;;;;9176055;19;20183;-68
2023/01/15 09:17:46;;;;;;;12.38;1.63;;;6.30;87.20;;;;;;9174811;19;20082;-67
2023/01/15 09:20:47;;;;;;;13.40;2.30;;;6.30;87.20;;;;;;9173983;19;20098;-67
2023/01/15 09:23:49;;;;;;;14.07;1.73;;;6.40;87.20;;;;;;9173910;19;20017;-67
2023/01/15 09:26:52;;;;;;;7.15;1.55;;;6.40;87.20;;;;;;9175373;19;20011;-68
2023/01/15 09:29:54;;;;;;;11.27;1.83;;;6.40;87.20;;;;;;9172306;19;20022;-66
2023/01/15 09:32:55;;;;;;;7.18;1.38;;;6.50;87.30;;;;;;9174145;19;20511;-67
2023/01/15 09:35:57;;;;;;;12.52;1.60;;;6.50;87.20;;;;;;9170714;19;20018;-67
2023/01/15 09:39:00;;;;;;;6.88;1.63;;;6.50;87.10;;;;;;9174322;19;20059;-66
2023/01/15 09:42:27;;;;;;;18.73;1.95;;;6.60;87.10;;;;;;9171422;19;20051;-67
2023/01/15 09:45:42;;;;;;;6.18;1.15;;;6.60;87.00;;;;;;9171378;19;20031;-66
2023/01/15 09:49:00;;;;;;;9.38;1.50;;;6.60;86.90;;;;;;9173716;19;20029;-67
2023/01/15 09:52:49;;;;;;;8.23;1.63;;;6.70;87.00;;;;;;9172038;19;20133;-66
2023/01/15 09:55:53;;;;;;;10.77;1.45;;;6.70;86.80;;;;;;9165657;19;20022;-66
2023/01/15 09:58:57;;;;;;;11.48;2.10;;;6.80;86.90;;;;;;9173806;19;20037;-67
2023/01/15 10:02:01;;;;;;;11.73;1.83;;;6.80;86.80;;;;;;9171060;19;20014;-65
2023/01/15 10:05:25;;;;;;;6.57;1.30;;;6.90;87.30;;;;;;9171861;19;20060;-65
2023/01/15 10:08:32;;;;;;;13.43;1.92;;;6.90;86.80;;;;;;9170762;19;20022;-67
2023/01/15 10:15:20;;;;;;;8.60;1.42;;;7.10;86.70;;;;;;9168886;19;20436;-67
2023/01/15 10:18:23;;;;;;;14.07;1.52;;;7.10;86.60;;;;;;9172709;19;20022;-66
2023/01/15 10:22:05;;;;;;;10.40;2.13;;;7.10;86.60;;;;;;9170674;19;20090;-65
2023/01/15 10:25:15;;;;;;;15.82;1.88;;;7.20;86.40;;;;;;9168920;19;20083;-65
2023/01/15 10:28:28;;;;;;;10.52;1.63;;;7.20;86.30;;;;;;9166952;19;20014;-65
2023/01/15 10:31:57;;;;;;;11.63;1.80;;;7.20;86.20;;;;;;9164057;19;20019;-65
2023/01/15 10:35:13;;;;;;;15.32;1.58;;;7.30;86.20;;;;;;9160313;19;20025;-65
2023/01/15 10:38:36;;;;;;;11.55;1.88;;;7.30;86.20;;;;;;9166221;19;20970;-67
2023/01/15 10:42:03;;;;;;;13.32;2.17;;;7.30;86.10;;;;;;9161416;19;20018;-65
2023/01/15 10:45:21;;;;;;;13.75;1.98;;;7.40;86.20;;;;;;9163067;19;20037;-65
2023/01/15 10:48:50;;;;;;;12.00;1.33;;;7.40;86.20;;;;;;9161623;19;20018;-65
2023/01/15 10:51:55;;;;;;;13.73;2.40;;;7.50;86.10;;;;;;9161458;19;20023;-65
2023/01/15 10:55:26;;;;;;;13.43;1.52;;;7.50;86.10;;;;;;9161008;19;20051;-67
2023/01/15 10:58:44;;;;;;;8.40;1.40;;;7.50;85.90;;;;;;9162272;19;20034;-65
2023/01/15 11:01:48;;;;;;;10.43;2.72;;;7.60;85.90;;;;;;9159326;19;20041;-65
2023/01/15 11:04:50;;;;;;;;;;;7.60;85.90;;;;;;9162342;19;20034;-65
2023/01/15 11:07:52;;;;;;;12.10;2.25;;;7.60;85.90;;;;;;9162278;19;19986;-65
2023/01/15 11:22:13;;;;;;;12.60;2.33;;;7.80;85.80;;;;;;9155124;19;20030;-67
2023/01/15 11:25:24;;;;;;;7.57;1.40;;;7.80;85.70;;;;;;9160102;19;20753;-65
2023/01/15 11:28:42;;;;;;;8.70;1.35;;;7.90;85.70;;;;;;9158400;19;20021;-65
2023/01/15 11:31:43;;;;;;;11.65;1.77;;;7.90;85.60;;;;;;9159758;19;20423;-65
2023/01/15 11:34:56;;;;;;;11.82;1.67;;;7.90;85.60;;;;;;9154815;19;20018;-67
2023/01/15 11:38:11;;;;;;;11.30;1.58;;;7.90;85.40;;;;;;9159381;19;20019;-67
2023/01/15 11:51:47;;;;;;;10.93;1.67;;;8.00;85.20;;;;;;9161286;19;20082;-67
2023/01/15 11:54:52;;;;;;;13.05;1.50;;;8.00;85.20;;;;;;9170337;19;20031;-66
2023/01/15 11:57:56;;;;;;;9.70;2.05;;;8.00;85.20;;;;;;9177526;19;20014;-67
2023/01/15 12:00:58;;;;;;;15.30;1.83;;;8.00;85.20;;;;;;9172859;19;20049;-67
2023/01/15 12:04:06;;;;;;;14.10;2.40;;;8.00;85.20;;;;;;9171787;19;20025;-67
2023/01/15 12:07:12;;;;;;;13.90;2.35;;;8.00;85.00;;;;;;9169441;19;20019;-65
2023/01/15 12:11:02;;;;;;;7.22;1.63;;;8.10;85.00;;;;;;9167164;19;20018;-66
2023/01/15 12:14:02;;;;;;;12.55;2.30;;;8.10;84.90;;;;;;9168755;19;20025;-66
2023/01/15 12:17:36;;;;;;;11.82;2.45;;;8.10;84.80;;;;;;9170964;19;20118;-66
2023/01/15 12:20:55;;;;;;;13.23;1.80;;;8.10;84.70;;;;;;9167145;19;20019;-66
2023/01/15 12:24:15;;;;;;;12.93;1.85;;;8.20;84.70;;;;;;9175940;19;20799;-66
2023/01/15 12:27:38;;;;;;;15.07;1.52;;;8.20;84.80;;;;;;9172840;19;20026;-66
2023/01/15 12:31:01;;;;;;;10.80;2.60;;;8.20;84.70;;;;;;9174241;19;20021;-66
2023/01/15 12:34:54;;;;;;;7.22;1.75;;;8.20;84.60;;;;;;9173522;19;20041;-66
2023/01/15 12:38:18;;;;;;;8.75;1.55;;;8.20;84.40;;;;;;9169011;19;20011;-66
2023/01/15 12:45:04;;;;;;;15.38;1.88;;;8.30;84.50;;;;;;9170167;19;20038;-66
2023/01/15 12:48:42;;;;;;;5.22;1.70;;;8.30;84.60;;;;;;9170165;19;20385;-66
2023/01/15 12:51:53;;;;;;;10.70;1.67;;;8.30;84.40;;;;;;9168791;19;20491;-66
2023/01/15 12:55:08;;;;;;;8.18;1.70;;;8.30;84.70;;;;;;9167587;19;20022;-66
2023/01/15 12:58:31;;;;;;;7.95;1.52;;;8.30;84.40;;;;;;9169584;19;20030;-66
2023/01/15 13:02:08;;;;;;;7.95;1.65;;;8.30;84.30;;;;;;9169703;19;20030;-66
2023/01/15 13:05:21;;;;;;;9.75;1.45;;;8.30;84.30;;;;;;9166234;19;20359;-66
2023/01/15 13:08:36;;;;;;;11.57;1.80;;;8.40;84.30;;;;;;9167672;19;20027;-66
2023/01/15 13:11:37;;;;;;;15.32;2.03;;;8.30;84.20;;;;;;9164670;19;20056;-66
2023/01/15 13:14:39;;;;;;;14.95;1.58;;;8.30;84.20;;;;;;9166071;19;20094;-66
2023/01/15 13:17:59;;;;;;;12.15;3.65;;;8.30;84.20;;;;;;9170587;19;20102;-66
2023/01/15 13:21:11;;;;;;;16.13;2.33;;;8.30;84.10;;;;;;9166965;19;20011;-65
2023/01/15 13:24:19;;;;;;;9.82;1.73;;;8.30;84.20;;;;;;9163943;19;20019;-66
2023/01/15 13:27:46;;;;;;;13.43;1.65;;;8.30;84.20;;;;;;9166480;19;20018;-66
2023/01/15 13:31:12;;;;;;;9.70;1.80;;;8.20;84.70;;;;;;9167142;19;20360;-66
2023/01/15 13:34:22;;;;;;;8.18;2.28;;;8.20;84.10;;;;;;9164531;19;20025;-66
2023/01/15 13:37:26;;;;;;;10.25;1.63;;;8.20;84.10;;;;;;9163395;19;20021;-66
2023/01/15 13:40:39;;;;;;;3.60;1.00;;;8.10;84.10;;;;;;9164884;19;20899;-66
2023/01/15 13:43:42;;;;;;;10.18;1.17;;;8.10;84.20;;;;;;9164966;19;20043;-66
2023/01/15 13:46:45;;;;;;;7.67;1.60;;;8.00;84.20;;;;;;9166158;19;20046;-65
2023/01/15 13:49:54;;;;;;;8.88;1.38;;;8.00;84.20;;;;;;9166095;19;20492;-66
2023/01/15 13:53:12;;;;;;;7.43;1.15;;;7.90;84.30;;;;;;9166760;19;20014;-66
2023/01/15 13:56:26;;;;;;;7.68;1.35;;;7.90;84.40;;;;;;9168639;19;20046;-66
2023/01/15 13:59:37;;;;;;;;;;;7.80;84.40;;;;;;9166635;19;20505;-66
2023/01/15 14:02:39;;;;;;;5.60;1.27;;;7.70;84.50;;;;;;9163315;19;19929;-66
2023/01/15 14:05:41;;;;;;;6.07;1.50;;;7.70;84.50;;;;;;9166648;19;20022;-65
2023/01/15 14:08:44;;;;;;;6.20;1.30;;;7.60;84.50;;;;;;9163095;19;20019;-65
2023/01/15 14:12:06;;;;;;;4.30;0.98;;;7.60;84.60;;;;;;9163317;19;20029;-65
2023/01/15 14:15:29;;;;;;;5.53;1.00;;;7.50;84.70;;;;;;9162164;19;20027;-65
2023/01/15 14:19:07;;;;;;;7.45;1.13;;;7.50;84.80;;;;;;9172972;19;20057;-66
2023/01/15 14:22:38;;;;;;;8.10;1.77;;;7.50;84.80;;;;;;9171136;19;20038;-66
2023/01/15 14:25:42;;;;;;;12.95;2.50;;;7.50;85.00;;;;;;9169393;19;20390;-66
2023/01/15 14:28:58;;;;;;;8.18;1.83;;;7.50;85.10;;;;;;9157543;19;20025;-65
2023/01/15 14:32:27;;;;;;;9.48;2.17;;;7.50;85.10;;;;;;9163579;19;20053;-66
2023/01/15 14:35:36;;;;;;;13.85;2.25;;;7.40;85.00;;;;;;9159523;19;20022;-65
2023/01/15 14:38:50;;;;;;;9.68;2.00;;;7.40;85.10;;;;;;9160935;19;20510;-65
2023/01/15 14:45:35;;;;;;;10.48;1.40;;;7.40;85.20;;;;;;9158003;19;20015;-64
2023/01/15 14:48:38;;;;;;;5.75;1.20;;;7.40;85.20;;;;;;9160194;19;20041;-66
2023/01/15 14:51:48;;;;;;;6.43;1.23;;;7.40;85.20;;;;;;9161430;19;20090;-64
2023/01/15 14:54:52;;;;;;;7.75;1.63;;;7.40;85.10;;;;;;9166853;19;20508;-66
2023/01/15 14:58:07;;;;;;;14.15;3.10;;;7.40;85.10;;;;;;9164897;19;20019;-66
2023/01/15 15:01:37;;;;;;;8.68;2.33;;;7.30;85.00;;;;;;9164795;19;20022;-66
2023/01/15 15:04:43;;;;;;;11.88;2.60;;;7.30;85.10;;;;;;9163534;19;20467;-66
2023/01/15 15:07:51;;;;;;;6.80;2.13;;;7.30;85.20;;;;;;9166872;19;20980;-66
2023/01/15 15:10:54;;;;;;;14.65;2.05;;;7.30;85.20;;;;;;9163111;19;20022;-66
2023/01/15 15:13:56;;;;;;;9.18;2.30;;;7.30;85.30;;;;;;9169178;19;20019;-66
2023/01/15 15:17:01;;;;;;;6.45;1.83;;;7.30;85.30;;;;;;9168611;19;20015;-66
2023/01/15 15:20:23;;;;;;;6.50;1.52;;;7.20;85.20;;;;;;9171088;19;20034;-66
2023/01/15 15:24:02;;;;;;;9.05;1.60;;;7.20;85.20;;;;;;9166701;19;20018;-66
2023/01/15 15:27:21;;;;;;;8.75;1.65;;;7.20;85.30;;;;;;9170033;19;20019;-66
2023/01/15 15:30:23;;;;;;;5.10;1.48;;;7.20;85.30;;;;;;9171264;19;20010;-66
2023/01/15 15:33:30;;;;;;;18.40;1.98;;;7.20;85.40;;;;;;9170905;19;20573;-66
2023/01/15 15:36:34;;;;;;;6.35;2.08;;;7.30;85.40;;;;;;9169261;19;20022;-67
2023/01/15 15:39:46;;;;;;;16.30;1.58;;;7.30;85.40;;;;;;9170661;19;20052;-65
2023/01/15 15:50:24;;;;;;;8.95;1.58;;;7.30;85.40;;;;;;9173696;19;20027;-67
2023/01/15 15:53:25;;;;;;;10.35;2.40;;;7.40;85.50;;;;;;9169838;19;20017;-64
2023/01/15 15:56:27;;;;;;;9.05;1.80;;;7.30;85.50;;;;;;9170118;19;20609;-67
2023/01/15 15:59:34;;;;;;;6.43;1.70;;;7.40;85.40;;;;;;9170448;19;20022;-67
2023/01/15 16:02:40;;;;;;;7.72;2.05;;;7.40;85.50;;;;;;9168011;19;20064;-65
2023/01/15 16:05:42;;;;;;;15.80;4.68;;;7.40;85.80;;;;;;9169646;19;20023;-67
2023/01/15 16:08:52;;;;;;;2.58;0.70;;;7.40;85.50;;;;;;9170447;19;20026;-66
2023/01/15 16:12:05;;;;;;;3.78;2.10;;;7.40;85.40;;;;;;9167048;19;20026;-66
2023/01/15 16:15:18;;;;;;;3.85;1.00;;;7.40;85.30;;;;;;9170353;19;20018;-66
2023/01/15 16:18:39;;;;;;;2.38;0.70;;;7.30;85.20;;;;;;9168373;19;20018;-67
2023/01/15 16:21:41;;;;;;;2.05;0.82;;;7.30;85.10;;;;;;9166231;19;20324;-66
2023/01/15 16:24:53;;;;;;;0.80;0.68;;;7.30;85.00;;;;;;9169204;19;20371;-65
2023/01/15 16:27:55;;;;;;;2.17;0.77;;;7.20;84.90;;;;;;9175138;19;20022;-65
2023/01/15 16:30:58;;;;;;;2.38;0.80;;;7.10;84.90;;;;;;9170957;19;20938;-65
2023/01/15 16:34:00;;;;;;;3.40;0.87;;;7.10;84.80;;;;;;9176853;19;20021;-64
2023/01/15 16:37:01;;;;;;;2.22;0.60;;;7.00;84.80;;;;;;9177963;19;20465;-64
2023/01/15 16:40:04;;;;;;;4.05;1.05;;;6.90;84.80;;;;;;9181404;19;20020;-64
2023/01/15 16:43:14;;;;;;;3.53;1.20;;;6.80;84.70;;;;;;9179669;19;20017;-64
2023/01/15 16:46:17;;;;;;;4.32;0.88;;;6.80;84.80;;;;;;9182769;19;20613;-64
2023/01/15 16:49:21;;;;;;;7.45;1.80;;;6.70;84.90;;;;;;9182732;19;20015;-67
2023/01/15 16:52:53;;;;;;;4.18;1.50;;;6.70;85.00;;;;;;9181705;19;20025;-64
2023/01/15 16:55:56;;;;;;;5.60;1.92;;;6.60;85.00;;;;;;9180751;19;20506;-65
2023/01/15 16:58:57;;;;;;;8.43;2.17;;;6.50;85.10;;;;;;9182440;19;20347;-64
2023/01/15 17:02:08;;;;;;;4.72;2.03;;;6.50;85.20;;;;;;9180829;19;20015;-64
2023/01/15 17:05:16;;;;;;;5.20;1.58;;;6.50;85.30;;;;;;9182834;19;20042;-63
2023/01/15 17:08:24;;;;;;;4.55;0.90;;;6.40;85.20;;;;;;9181818;19;20038;-65
2023/01/15 17:11:28;;;;;;;5.72;1.02;;;6.40;85.20;;;;;;9179387;19;20019;-64
2023/01/15 17:14:30;;;;;;;2.10;0.88;;;6.30;85.10;;;;;;9181078;19;20490;-66
2023/01/15 17:17:31;;;;;;;4.80;1.05;;;6.30;85.80;;;;;;9178767;19;20015;-65
2023/01/15 17:20:34;;;;;;;2.50;1.17;;;6.20;85.20;;;;;;9181767;19;20014;-66
2023/01/15 17:23:41;;;;;;;6.88;2.17;;;6.20;85.30;;;;;;9181227;19;20054;-63
2023/01/15 17:26:43;;;;;;;5.78;1.30;;;6.10;85.40;;;;;;9181026;19;20041;-65
2023/01/15 17:29:44;;;;;;;5.80;1.75;;;6.10;85.50;;;;;;9179576;19;20018;-66